Airfield :
LOGIN :

Register | Disclaimer

   EN    FR    IT 

 










Legend :    VFR   Marginal VFR   IFR   Intensive IFR   Very Intensive IFR
Visi :
Ceiling :
>= 8 km
>= 3000ft
5 to 8 km
1000 to 3000 ft
1500m to 5 km
500 to 1000 ft
800 to 1500m
200 to 500 ft
< 800m
< 200 ft
Symbols :   Thunderstorms  Fog  Heavy snow  Heavy precipitations  Wind > 20 kt
SIGMETs :     Misc.  Thunderstorms  Icing  Turbulence  Mountain Waves  Volcanic Ashes






- Airport Elevation : 587 ft
- IATA code : XCR


LFOK - Chalons Vatry

CURRENT METAR :
  • 261000Z AUTO 31004KT 270V010 2100 BR VV/// M02/M02 Q1035 TEMPO 0700 FZFG

EXPIRED METARs :
  • 260930Z AUTO 26004KT 210V300 1200 1000 R10/2000U R28/2300D BR VV/// M02/M02 Q1035 TEMPO 0700 FZFG
  • 260900Z AUTO VRB02KT 1200 0900 R10/1600N R28/2000U BCFG VV/// M02/M02 Q1034 TEMPO 0700 FZFG
  • 260830Z AUTO VRB01KT 1100 1000 R10/1700U R28/1500N BR VV/// M02/M02 Q1035 TEMPO 0700 FZFG
  • 260800Z AUTO 35004KT 330V030 1000 0900 R10/1400N R28/1500D BCFG VV/// M02/M02 Q1035 TEMPO 0700 FZFG
  • 260730Z AUTO 33005KT 280V060 1100 0700 R10/1200D R28/1400N BCFG VV/// M02/M02 Q1034 TEMPO 0700 FZFG

TAF TAF LFOK
Valid from the 26 at 06:00 until the 27 at 06:00 UTC


260500Z 2606/2706 VRB02KT 2000 BR OVC002
TEMPO 2606/2612 0700 FZFG VV///
TEMPO 2612/2618 4000 BR
TEMPO 2618/2706 0500 FZFG VV///



MET'MAP, your aeronautical weather chart ! - Copyright ORBIFLY December 2007 - Disclaimer

ORBIFLY MET'MAP TEAM :

Programming & Development : Alexandra Zaïnal
Original concept : Baudouin d'Aumeries
Technical & hardware support : Manuel Goepfert
Assistance : Marc-Olivier Méhu

Contact : metmap@orbifly.com




SOURCES & CREDITS :

   NOAA